sensor_id;sensor_type;location;lat;lon;timestamp;P1;durP1;ratioP1;P2;durP2;ratioP2
76475;SDS011;65308;50.078;14.854;2024-03-06T00:00:33;31.52;;;16.02;;
76475;SDS011;65308;50.078;14.854;2024-03-06T00:03:01;31.65;;;16.27;;
76475;SDS011;65308;50.078;14.854;2024-03-06T00:05:28;28.48;;;16.35;;
76475;SDS011;65308;50.078;14.854;2024-03-06T00:07:54;31.27;;;15.70;;
76475;SDS011;65308;50.078;14.854;2024-03-06T00:10:21;31.23;;;16.25;;
76475;SDS011;65308;50.078;14.854;2024-03-06T00:12:47;32.42;;;17.17;;
76475;SDS011;65308;50.078;14.854;2024-03-06T00:15:14;33.00;;;16.90;;
76475;SDS011;65308;50.078;14.854;2024-03-06T00:17:41;35.30;;;17.60;;
76475;SDS011;65308;50.078;14.854;2024-03-06T00:20:09;31.75;;;17.55;;
76475;SDS011;65308;50.078;14.854;2024-03-06T00:22:36;31.23;;;16.25;;
76475;SDS011;65308;50.078;14.854;2024-03-06T00:25:03;31.38;;;16.30;;
76475;SDS011;65308;50.078;14.854;2024-03-06T00:29:57;32.65;;;17.30;;
76475;SDS011;65308;50.078;14.854;2024-03-06T00:32:23;38.60;;;17.88;;
76475;SDS011;65308;50.078;14.854;2024-03-06T00:34:50;36.92;;;17.38;;
76475;SDS011;65308;50.078;14.854;2024-03-06T00:37:18;35.20;;;17.25;;
76475;SDS011;65308;50.078;14.854;2024-03-06T00:39:44;32.75;;;17.00;;
76475;SDS011;65308;50.078;14.854;2024-03-06T00:42:11;32.63;;;17.33;;
76475;SDS011;65308;50.078;14.854;2024-03-06T00:44:38;35.60;;;16.65;;
76475;SDS011;65308;50.078;14.854;2024-03-06T00:47:05;32.97;;;16.95;;
76475;SDS011;65308;50.078;14.854;2024-03-06T00:49:32;35.13;;;16.98;;
76475;SDS011;65308;50.078;14.854;2024-03-06T00:51:58;29.98;;;17.10;;
76475;SDS011;65308;50.078;14.854;2024-03-06T00:54:26;30.42;;;16.23;;
76475;SDS011;65308;50.078;14.854;2024-03-06T00:56:53;34.90;;;16.42;;
76475;SDS011;65308;50.078;14.854;2024-03-06T00:59:19;30.90;;;16.38;;
76475;SDS011;65308;50.078;14.854;2024-03-06T01:01:46;30.20;;;16.58;;
76475;SDS011;65308;50.078;14.854;2024-03-06T01:04:12;28.10;;;16.00;;
76475;SDS011;65308;50.078;14.854;2024-03-06T01:06:39;27.88;;;16.30;;
76475;SDS011;65308;50.078;14.854;2024-03-06T01:09:06;30.42;;;15.85;;
76475;SDS011;65308;50.078;14.854;2024-03-06T01:11:34;25.60;;;16.52;;
76475;SDS011;65308;50.078;14.854;2024-03-06T01:14:00;25.05;;;14.18;;
76475;SDS011;65308;50.078;14.854;2024-03-06T01:16:28;25.13;;;14.02;;
76475;SDS011;65308;50.078;14.854;2024-03-06T01:18:55;29.02;;;15.80;;
76475;SDS011;65308;50.078;14.854;2024-03-06T01:21:22;28.17;;;15.27;;
76475;SDS011;65308;50.078;14.854;2024-03-06T01:23:48;27.10;;;15.23;;
76475;SDS011;65308;50.078;14.854;2024-03-06T01:26:15;26.67;;;13.77;;
76475;SDS011;65308;50.078;14.854;2024-03-06T01:28:43;25.70;;;14.65;;
76475;SDS011;65308;50.078;14.854;2024-03-06T01:31:09;27.83;;;14.88;;
76475;SDS011;65308;50.078;14.854;2024-03-06T01:33:36;27.17;;;14.32;;
76475;SDS011;65308;50.078;14.854;2024-03-06T01:36:02;35.75;;;16.20;;
76475;SDS011;65308;50.078;14.854;2024-03-06T01:38:30;29.80;;;15.05;;
76475;SDS011;65308;50.078;14.854;2024-03-06T01:40:57;31.15;;;15.00;;
76475;SDS011;65308;50.078;14.854;2024-03-06T01:43:24;29.98;;;15.55;;
76475;SDS011;65308;50.078;14.854;2024-03-06T01:45:52;31.40;;;17.48;;
76475;SDS011;65308;50.078;14.854;2024-03-06T01:48:20;32.05;;;16.77;;
76475;SDS011;65308;50.078;14.854;2024-03-06T01:50:50;29.30;;;15.77;;
76475;SDS011;65308;50.078;14.854;2024-03-06T01:53:18;34.13;;;17.17;;
76475;SDS011;65308;50.078;14.854;2024-03-06T01:55:45;31.70;;;16.92;;
76475;SDS011;65308;50.078;14.854;2024-03-06T01:58:14;32.70;;;17.48;;
76475;SDS011;65308;50.078;14.854;2024-03-06T02:00:40;37.00;;;17.60;;
76475;SDS011;65308;50.078;14.854;2024-03-06T02:03:09;33.67;;;17.83;;
76475;SDS011;65308;50.078;14.854;2024-03-06T02:05:36;28.20;;;15.98;;
76475;SDS011;65308;50.078;14.854;2024-03-06T02:08:03;32.38;;;16.10;;
76475;SDS011;65308;50.078;14.854;2024-03-06T02:10:30;30.55;;;17.30;;
76475;SDS011;65308;50.078;14.854;2024-03-06T02:12:57;32.42;;;16.13;;
76475;SDS011;65308;50.078;14.854;2024-03-06T02:15:23;28.35;;;15.70;;
76475;SDS011;65308;50.078;14.854;2024-03-06T02:17:50;30.67;;;15.70;;
76475;SDS011;65308;50.078;14.854;2024-03-06T02:20:21;32.33;;;16.83;;
76475;SDS011;65308;50.078;14.854;2024-03-06T02:22:48;29.90;;;16.60;;
76475;SDS011;65308;50.078;14.854;2024-03-06T02:25:15;29.77;;;16.25;;
76475;SDS011;65308;50.078;14.854;2024-03-06T02:27:42;33.08;;;17.83;;
76475;SDS011;65308;50.078;14.854;2024-03-06T02:30:09;30.05;;;17.58;;
76475;SDS011;65308;50.078;14.854;2024-03-06T02:32:36;34.97;;;16.73;;
76475;SDS011;65308;50.078;14.854;2024-03-06T02:35:03;27.90;;;14.75;;
76475;SDS011;65308;50.078;14.854;2024-03-06T02:37:34;33.75;;;17.10;;
76475;SDS011;65308;50.078;14.854;2024-03-06T02:40:01;34.17;;;18.23;;
76475;SDS011;65308;50.078;14.854;2024-03-06T02:42:28;36.42;;;18.67;;
76475;SDS011;65308;50.078;14.854;2024-03-06T02:44:54;36.83;;;20.10;;
76475;SDS011;65308;50.078;14.854;2024-03-06T02:47:21;37.00;;;18.35;;
76475;SDS011;65308;50.078;14.854;2024-03-06T02:49:48;33.13;;;18.70;;
76475;SDS011;65308;50.078;14.854;2024-03-06T02:52:14;36.38;;;19.25;;
76475;SDS011;65308;50.078;14.854;2024-03-06T02:54:42;34.13;;;17.42;;
76475;SDS011;65308;50.078;14.854;2024-03-06T02:57:09;37.25;;;19.75;;
76475;SDS011;65308;50.078;14.854;2024-03-06T02:59:35;35.58;;;18.60;;
76475;SDS011;65308;50.078;14.854;2024-03-06T03:02:02;35.97;;;17.15;;
76475;SDS011;65308;50.078;14.854;2024-03-06T03:04:28;32.30;;;17.90;;
76475;SDS011;65308;50.078;14.854;2024-03-06T03:06:55;31.55;;;16.88;;
76475;SDS011;65308;50.078;14.854;2024-03-06T03:09:21;33.03;;;17.55;;
76475;SDS011;65308;50.078;14.854;2024-03-06T03:11:49;33.33;;;16.90;;
76475;SDS011;65308;50.078;14.854;2024-03-06T03:14:16;30.30;;;16.13;;
76475;SDS011;65308;50.078;14.854;2024-03-06T03:16:43;33.80;;;17.42;;
76475;SDS011;65308;50.078;14.854;2024-03-06T03:19:10;33.90;;;18.10;;
76475;SDS011;65308;50.078;14.854;2024-03-06T03:21:37;32.75;;;16.23;;
76475;SDS011;65308;50.078;14.854;2024-03-06T03:24:04;33.55;;;16.48;;
76475;SDS011;65308;50.078;14.854;2024-03-06T03:26:31;32.58;;;17.38;;
76475;SDS011;65308;50.078;14.854;2024-03-06T03:28:59;32.22;;;17.98;;
76475;SDS011;65308;50.078;14.854;2024-03-06T03:31:25;35.05;;;17.67;;
76475;SDS011;65308;50.078;14.854;2024-03-06T03:33:52;36.42;;;18.65;;
76475;SDS011;65308;50.078;14.854;2024-03-06T03:36:21;33.38;;;18.25;;
76475;SDS011;65308;50.078;14.854;2024-03-06T03:38:48;34.78;;;19.90;;
76475;SDS011;65308;50.078;14.854;2024-03-06T03:41:14;33.90;;;18.42;;
76475;SDS011;65308;50.078;14.854;2024-03-06T03:43:41;37.33;;;18.92;;
76475;SDS011;65308;50.078;14.854;2024-03-06T03:46:10;37.20;;;19.40;;
76475;SDS011;65308;50.078;14.854;2024-03-06T03:48:36;39.92;;;19.52;;
76475;SDS011;65308;50.078;14.854;2024-03-06T03:51:03;35.47;;;18.40;;
76475;SDS011;65308;50.078;14.854;2024-03-06T03:53:30;34.13;;;16.98;;
76475;SDS011;65308;50.078;14.854;2024-03-06T03:55:57;37.33;;;19.15;;
76475;SDS011;65308;50.078;14.854;2024-03-06T03:58:23;37.30;;;18.73;;
76475;SDS011;65308;50.078;14.854;2024-03-06T04:00:50;35.50;;;19.40;;
76475;SDS011;65308;50.078;14.854;2024-03-06T04:03:19;41.20;;;20.48;;
76475;SDS011;65308;50.078;14.854;2024-03-06T04:05:46;42.28;;;20.70;;
76475;SDS011;65308;50.078;14.854;2024-03-06T04:08:13;39.22;;;19.02;;
76475;SDS011;65308;50.078;14.854;2024-03-06T04:10:41;43.42;;;21.30;;
76475;SDS011;65308;50.078;14.854;2024-03-06T04:13:09;40.63;;;19.80;;
76475;SDS011;65308;50.078;14.854;2024-03-06T04:15:35;41.03;;;19.77;;
76475;SDS011;65308;50.078;14.854;2024-03-06T04:18:02;39.67;;;18.90;;
76475;SDS011;65308;50.078;14.854;2024-03-06T04:20:30;39.78;;;20.17;;
76475;SDS011;65308;50.078;14.854;2024-03-06T04:22:57;37.83;;;19.88;;
76475;SDS011;65308;50.078;14.854;2024-03-06T04:25:24;36.22;;;20.05;;
76475;SDS011;65308;50.078;14.854;2024-03-06T04:27:50;36.88;;;19.08;;
76475;SDS011;65308;50.078;14.854;2024-03-06T04:30:17;41.45;;;19.08;;
76475;SDS011;65308;50.078;14.854;2024-03-06T04:32:44;38.50;;;19.50;;
76475;SDS011;65308;50.078;14.854;2024-03-06T04:35:10;37.88;;;19.55;;
76475;SDS011;65308;50.078;14.854;2024-03-06T04:37:38;39.03;;;20.23;;
76475;SDS011;65308;50.078;14.854;2024-03-06T04:40:06;35.47;;;18.15;;
76475;SDS011;65308;50.078;14.854;2024-03-06T04:42:33;36.13;;;19.13;;
76475;SDS011;65308;50.078;14.854;2024-03-06T04:45:01;39.80;;;19.63;;
76475;SDS011;65308;50.078;14.854;2024-03-06T04:47:28;32.15;;;18.50;;
76475;SDS011;65308;50.078;14.854;2024-03-06T04:49:54;39.25;;;19.63;;
76475;SDS011;65308;50.078;14.854;2024-03-06T04:52:22;36.25;;;18.52;;
76475;SDS011;65308;50.078;14.854;2024-03-06T04:54:50;39.42;;;19.17;;
76475;SDS011;65308;50.078;14.854;2024-03-06T04:57:17;36.33;;;17.67;;
76475;SDS011;65308;50.078;14.854;2024-03-06T04:59:43;33.28;;;17.00;;
76475;SDS011;65308;50.078;14.854;2024-03-06T05:02:10;37.28;;;18.17;;
76475;SDS011;65308;50.078;14.854;2024-03-06T05:04:37;39.20;;;19.60;;
76475;SDS011;65308;50.078;14.854;2024-03-06T05:07:03;39.10;;;20.13;;
76475;SDS011;65308;50.078;14.854;2024-03-06T05:09:30;33.25;;;16.83;;
76475;SDS011;65308;50.078;14.854;2024-03-06T05:11:58;38.25;;;18.65;;
76475;SDS011;65308;50.078;14.854;2024-03-06T05:14:24;36.42;;;18.17;;
76475;SDS011;65308;50.078;14.854;2024-03-06T05:16:51;38.70;;;19.17;;
76475;SDS011;65308;50.078;14.854;2024-03-06T05:19:18;33.63;;;17.70;;
76475;SDS011;65308;50.078;14.854;2024-03-06T05:21:45;37.72;;;20.42;;
76475;SDS011;65308;50.078;14.854;2024-03-06T05:24:11;34.53;;;17.70;;
76475;SDS011;65308;50.078;14.854;2024-03-06T05:26:38;34.67;;;17.83;;
76475;SDS011;65308;50.078;14.854;2024-03-06T05:29:06;42.95;;;19.75;;
76475;SDS011;65308;50.078;14.854;2024-03-06T05:31:32;39.10;;;20.42;;
76475;SDS011;65308;50.078;14.854;2024-03-06T05:33:59;45.55;;;21.88;;
76475;SDS011;65308;50.078;14.854;2024-03-06T05:36:26;46.58;;;22.92;;
76475;SDS011;65308;50.078;14.854;2024-03-06T05:38:52;38.83;;;20.92;;
76475;SDS011;65308;50.078;14.854;2024-03-06T05:41:19;40.42;;;21.52;;
76475;SDS011;65308;50.078;14.854;2024-03-06T05:43:45;38.35;;;19.73;;
76475;SDS011;65308;50.078;14.854;2024-03-06T05:46:13;40.80;;;20.67;;
76475;SDS011;65308;50.078;14.854;2024-03-06T05:48:40;38.05;;;18.50;;
76475;SDS011;65308;50.078;14.854;2024-03-06T05:51:07;38.72;;;19.40;;
76475;SDS011;65308;50.078;14.854;2024-03-06T05:53:36;38.42;;;18.65;;
76475;SDS011;65308;50.078;14.854;2024-03-06T05:56:04;37.33;;;18.52;;
76475;SDS011;65308;50.078;14.854;2024-03-06T05:58:31;37.28;;;18.50;;
76475;SDS011;65308;50.078;14.854;2024-03-06T06:00:59;37.92;;;18.23;;
76475;SDS011;65308;50.078;14.854;2024-03-06T06:03:27;44.35;;;19.30;;
76475;SDS011;65308;50.078;14.854;2024-03-06T06:05:54;39.63;;;18.98;;
76475;SDS011;65308;50.078;14.854;2024-03-06T06:08:21;40.17;;;19.20;;
76475;SDS011;65308;50.078;14.854;2024-03-06T06:10:48;34.03;;;17.92;;
76475;SDS011;65308;50.078;14.854;2024-03-06T06:13:16;35.30;;;19.55;;
76475;SDS011;65308;50.078;14.854;2024-03-06T06:15:43;37.53;;;19.33;;
76475;SDS011;65308;50.078;14.854;2024-03-06T06:18:10;34.70;;;17.05;;
76475;SDS011;65308;50.078;14.854;2024-03-06T06:20:38;31.30;;;16.65;;
76475;SDS011;65308;50.078;14.854;2024-03-06T06:23:07;31.38;;;16.50;;
76475;SDS011;65308;50.078;14.854;2024-03-06T06:25:33;34.83;;;15.85;;
76475;SDS011;65308;50.078;14.854;2024-03-06T06:28:00;29.05;;;15.70;;
76475;SDS011;65308;50.078;14.854;2024-03-06T06:30:27;32.47;;;16.65;;
76475;SDS011;65308;50.078;14.854;2024-03-06T06:32:53;33.63;;;17.83;;
76475;SDS011;65308;50.078;14.854;2024-03-06T06:35:20;31.35;;;16.73;;
76475;SDS011;65308;50.078;14.854;2024-03-06T06:37:48;35.55;;;17.35;;
76475;SDS011;65308;50.078;14.854;2024-03-06T06:40:15;32.83;;;17.17;;
76475;SDS011;65308;50.078;14.854;2024-03-06T06:42:45;31.67;;;16.08;;
76475;SDS011;65308;50.078;14.854;2024-03-06T06:45:14;36.85;;;16.92;;
76475;SDS011;65308;50.078;14.854;2024-03-06T06:47:41;29.38;;;14.77;;
76475;SDS011;65308;50.078;14.854;2024-03-06T06:50:08;34.70;;;16.50;;
76475;SDS011;65308;50.078;14.854;2024-03-06T06:52:36;29.50;;;16.48;;
76475;SDS011;65308;50.078;14.854;2024-03-06T06:55:04;32.42;;;17.27;;
76475;SDS011;65308;50.078;14.854;2024-03-06T06:57:32;35.20;;;17.00;;
76475;SDS011;65308;50.078;14.854;2024-03-06T07:00:00;32.40;;;16.85;;
76475;SDS011;65308;50.078;14.854;2024-03-06T07:02:31;33.50;;;17.90;;
76475;SDS011;65308;50.078;14.854;2024-03-06T07:04:57;32.97;;;15.75;;
76475;SDS011;65308;50.078;14.854;2024-03-06T07:07:24;31.42;;;15.75;;
76475;SDS011;65308;50.078;14.854;2024-03-06T07:09:51;35.92;;;17.85;;
76475;SDS011;65308;50.078;14.854;2024-03-06T07:12:19;32.28;;;16.40;;
76475;SDS011;65308;50.078;14.854;2024-03-06T07:14:45;33.10;;;16.73;;
76475;SDS011;65308;50.078;14.854;2024-03-06T07:17:12;34.22;;;17.70;;
76475;SDS011;65308;50.078;14.854;2024-03-06T07:19:38;34.70;;;17.25;;
76475;SDS011;65308;50.078;14.854;2024-03-06T07:22:05;34.50;;;17.63;;
76475;SDS011;65308;50.078;14.854;2024-03-06T07:24:32;37.78;;;17.52;;
76475;SDS011;65308;50.078;14.854;2024-03-06T07:26:59;36.40;;;17.25;;
76475;SDS011;65308;50.078;14.854;2024-03-06T07:29:27;33.47;;;16.00;;
76475;SDS011;65308;50.078;14.854;2024-03-06T07:31:54;34.90;;;18.00;;
76475;SDS011;65308;50.078;14.854;2024-03-06T07:34:21;38.92;;;17.45;;
76475;SDS011;65308;50.078;14.854;2024-03-06T07:36:48;30.17;;;16.17;;
76475;SDS011;65308;50.078;14.854;2024-03-06T07:39:15;32.70;;;17.05;;
76475;SDS011;65308;50.078;14.854;2024-03-06T07:41:42;30.15;;;16.67;;
76475;SDS011;65308;50.078;14.854;2024-03-06T07:44:08;32.28;;;17.17;;
76475;SDS011;65308;50.078;14.854;2024-03-06T07:46:36;30.38;;;15.13;;
76475;SDS011;65308;50.078;14.854;2024-03-06T07:49:03;32.13;;;16.63;;
76475;SDS011;65308;50.078;14.854;2024-03-06T07:51:31;31.23;;;15.52;;
76475;SDS011;65308;50.078;14.854;2024-03-06T07:53:58;29.27;;;14.90;;
76475;SDS011;65308;50.078;14.854;2024-03-06T07:56:24;30.60;;;15.13;;
76475;SDS011;65308;50.078;14.854;2024-03-06T07:58:52;28.88;;;16.10;;
76475;SDS011;65308;50.078;14.854;2024-03-06T08:01:19;29.52;;;15.95;;
76475;SDS011;65308;50.078;14.854;2024-03-06T08:03:48;31.80;;;15.48;;
76475;SDS011;65308;50.078;14.854;2024-03-06T08:06:15;32.63;;;16.48;;
76475;SDS011;65308;50.078;14.854;2024-03-06T08:08:42;30.15;;;15.30;;
76475;SDS011;65308;50.078;14.854;2024-03-06T08:11:09;32.30;;;15.07;;
76475;SDS011;65308;50.078;14.854;2024-03-06T08:13:36;29.02;;;15.20;;
76475;SDS011;65308;50.078;14.854;2024-03-06T08:16:03;29.25;;;15.15;;
76475;SDS011;65308;50.078;14.854;2024-03-06T08:18:31;29.90;;;14.95;;
76475;SDS011;65308;50.078;14.854;2024-03-06T08:21:00;29.58;;;15.35;;
76475;SDS011;65308;50.078;14.854;2024-03-06T08:23:27;29.63;;;14.48;;
76475;SDS011;65308;50.078;14.854;2024-03-06T08:25:54;31.75;;;16.35;;
76475;SDS011;65308;50.078;14.854;2024-03-06T08:28:20;27.20;;;14.95;;
76475;SDS011;65308;50.078;14.854;2024-03-06T08:30:47;31.17;;;16.27;;
76475;SDS011;65308;50.078;14.854;2024-03-06T08:33:14;32.58;;;15.13;;
76475;SDS011;65308;50.078;14.854;2024-03-06T08:35:41;25.90;;;15.32;;
76475;SDS011;65308;50.078;14.854;2024-03-06T08:38:09;28.48;;;15.63;;
76475;SDS011;65308;50.078;14.854;2024-03-06T08:40:35;31.95;;;16.80;;
76475;SDS011;65308;50.078;14.854;2024-03-06T08:43:03;29.27;;;15.50;;
76475;SDS011;65308;50.078;14.854;2024-03-06T08:45:30;27.77;;;15.75;;
76475;SDS011;65308;50.078;14.854;2024-03-06T08:47:57;28.10;;;14.98;;
76475;SDS011;65308;50.078;14.854;2024-03-06T08:50:24;28.48;;;15.32;;
76475;SDS011;65308;50.078;14.854;2024-03-06T08:52:51;27.75;;;16.52;;
76475;SDS011;65308;50.078;14.854;2024-03-06T08:55:19;29.63;;;16.35;;
76475;SDS011;65308;50.078;14.854;2024-03-06T08:57:45;30.75;;;17.20;;
76475;SDS011;65308;50.078;14.854;2024-03-06T09:00:12;31.13;;;18.05;;
76475;SDS011;65308;50.078;14.854;2024-03-06T09:02:40;31.55;;;18.42;;
76475;SDS011;65308;50.078;14.854;2024-03-06T09:05:07;30.90;;;18.63;;
76475;SDS011;65308;50.078;14.854;2024-03-06T09:07:35;30.70;;;18.30;;
76475;SDS011;65308;50.078;14.854;2024-03-06T09:10:03;32.20;;;20.48;;
76475;SDS011;65308;50.078;14.854;2024-03-06T09:12:33;31.25;;;21.17;;
76475;SDS011;65308;50.078;14.854;2024-03-06T09:15:00;31.88;;;19.88;;
76475;SDS011;65308;50.078;14.854;2024-03-06T09:17:27;31.92;;;20.48;;
76475;SDS011;65308;50.078;14.854;2024-03-06T09:19:54;31.02;;;19.23;;
76475;SDS011;65308;50.078;14.854;2024-03-06T09:22:21;31.80;;;20.83;;
76475;SDS011;65308;50.078;14.854;2024-03-06T09:24:48;32.40;;;20.80;;
76475;SDS011;65308;50.078;14.854;2024-03-06T09:27:14;33.25;;;20.55;;
76475;SDS011;65308;50.078;14.854;2024-03-06T09:29:43;31.40;;;21.15;;
76475;SDS011;65308;50.078;14.854;2024-03-06T09:32:09;33.75;;;21.52;;
76475;SDS011;65308;50.078;14.854;2024-03-06T09:34:38;32.28;;;22.27;;
76475;SDS011;65308;50.078;14.854;2024-03-06T09:37:05;31.15;;;21.02;;
76475;SDS011;65308;50.078;14.854;2024-03-06T09:39:31;34.03;;;21.30;;
76475;SDS011;65308;50.078;14.854;2024-03-06T09:41:59;32.50;;;21.63;;
76475;SDS011;65308;50.078;14.854;2024-03-06T09:44:26;32.33;;;21.30;;
76475;SDS011;65308;50.078;14.854;2024-03-06T09:46:55;34.35;;;20.33;;
76475;SDS011;65308;50.078;14.854;2024-03-06T09:49:26;38.60;;;23.73;;
76475;SDS011;65308;50.078;14.854;2024-03-06T09:51:52;33.30;;;19.60;;
76475;SDS011;65308;50.078;14.854;2024-03-06T09:54:20;30.80;;;17.00;;
76475;SDS011;65308;50.078;14.854;2024-03-06T09:56:51;32.78;;;20.65;;
76475;SDS011;65308;50.078;14.854;2024-03-06T09:59:17;33.10;;;18.23;;
76475;SDS011;65308;50.078;14.854;2024-03-06T10:01:45;34.67;;;18.67;;
76475;SDS011;65308;50.078;14.854;2024-03-06T10:04:20;32.05;;;18.90;;
76475;SDS011;65308;50.078;14.854;2024-03-06T10:06:48;33.08;;;19.40;;
76475;SDS011;65308;50.078;14.854;2024-03-06T10:09:16;34.33;;;20.38;;
76475;SDS011;65308;50.078;14.854;2024-03-06T10:11:43;34.03;;;19.60;;
76475;SDS011;65308;50.078;14.854;2024-03-06T10:14:10;34.17;;;18.20;;
76475;SDS011;65308;50.078;14.854;2024-03-06T10:16:37;35.33;;;19.20;;
76475;SDS011;65308;50.078;14.854;2024-03-06T10:21:46;32.45;;;17.08;;
76475;SDS011;65308;50.078;14.854;2024-03-06T10:24:16;30.50;;;17.27;;
76475;SDS011;65308;50.078;14.854;2024-03-06T10:26:45;31.15;;;18.48;;
76475;SDS011;65308;50.078;14.854;2024-03-06T10:29:13;33.00;;;18.80;;
76475;SDS011;65308;50.078;14.854;2024-03-06T10:31:46;31.35;;;18.40;;
76475;SDS011;65308;50.078;14.854;2024-03-06T10:34:13;31.85;;;19.33;;
76475;SDS011;65308;50.078;14.854;2024-03-06T10:36:40;31.25;;;17.25;;
76475;SDS011;65308;50.078;14.854;2024-03-06T10:39:08;28.83;;;17.05;;
76475;SDS011;65308;50.078;14.854;2024-03-06T10:41:38;30.98;;;19.10;;
76475;SDS011;65308;50.078;14.854;2024-03-06T10:44:08;32.78;;;17.58;;
76475;SDS011;65308;50.078;14.854;2024-03-06T10:46:39;31.77;;;17.25;;
76475;SDS011;65308;50.078;14.854;2024-03-06T10:49:09;31.50;;;18.23;;
76475;SDS011;65308;50.078;14.854;2024-03-06T10:51:37;26.90;;;16.67;;
76475;SDS011;65308;50.078;14.854;2024-03-06T10:54:08;28.15;;;15.48;;
76475;SDS011;65308;50.078;14.854;2024-03-06T10:56:36;32.88;;;16.25;;
76475;SDS011;65308;50.078;14.854;2024-03-06T10:59:07;29.30;;;15.40;;
76475;SDS011;65308;50.078;14.854;2024-03-06T11:01:36;29.65;;;17.30;;
76475;SDS011;65308;50.078;14.854;2024-03-06T11:04:03;30.17;;;16.48;;
76475;SDS011;65308;50.078;14.854;2024-03-06T11:06:30;31.33;;;15.85;;
76475;SDS011;65308;50.078;14.854;2024-03-06T11:08:59;30.15;;;16.77;;
76475;SDS011;65308;50.078;14.854;2024-03-06T11:11:27;30.15;;;17.00;;
76475;SDS011;65308;50.078;14.854;2024-03-06T11:13:55;24.80;;;15.77;;
76475;SDS011;65308;50.078;14.854;2024-03-06T11:16:26;29.50;;;16.50;;
76475;SDS011;65308;50.078;14.854;2024-03-06T11:19:04;25.77;;;16.20;;
76475;SDS011;65308;50.078;14.854;2024-03-06T11:21:32;28.65;;;16.58;;
76475;SDS011;65308;50.078;14.854;2024-03-06T11:24:19;29.45;;;16.08;;
76475;SDS011;65308;50.078;14.854;2024-03-06T11:26:47;27.13;;;16.27;;
76475;SDS011;65308;50.078;14.854;2024-03-06T11:29:26;31.27;;;17.15;;
76475;SDS011;65308;50.078;14.854;2024-03-06T11:32:00;31.52;;;17.13;;
76475;SDS011;65308;50.078;14.854;2024-03-06T11:37:03;30.58;;;16.65;;
76475;SDS011;65308;50.078;14.854;2024-03-06T11:39:34;30.15;;;16.30;;
76475;SDS011;65308;50.078;14.854;2024-03-06T11:42:02;25.40;;;14.55;;
76475;SDS011;65308;50.078;14.854;2024-03-06T11:44:29;28.23;;;15.15;;
76475;SDS011;65308;50.078;14.854;2024-03-06T11:46:58;33.08;;;16.65;;
76475;SDS011;65308;50.078;14.854;2024-03-06T11:49:26;28.50;;;15.60;;
76475;SDS011;65308;50.078;14.854;2024-03-06T11:51:57;30.23;;;16.80;;
76475;SDS011;65308;50.078;14.854;2024-03-06T11:54:26;28.48;;;16.02;;
76475;SDS011;65308;50.078;14.854;2024-03-06T11:56:55;26.30;;;15.70;;
76475;SDS011;65308;50.078;14.854;2024-03-06T11:59:23;28.00;;;17.35;;
76475;SDS011;65308;50.078;14.854;2024-03-06T12:01:51;29.42;;;16.27;;
76475;SDS011;65308;50.078;14.854;2024-03-06T12:04:18;28.83;;;16.60;;
76475;SDS011;65308;50.078;14.854;2024-03-06T12:06:46;29.98;;;16.83;;
76475;SDS011;65308;50.078;14.854;2024-03-06T12:09:13;29.60;;;17.25;;
76475;SDS011;65308;50.078;14.854;2024-03-06T12:11:40;30.83;;;17.38;;
76475;SDS011;65308;50.078;14.854;2024-03-06T12:14:12;30.10;;;18.88;;
76475;SDS011;65308;50.078;14.854;2024-03-06T12:16:39;27.23;;;16.15;;
76475;SDS011;65308;50.078;14.854;2024-03-06T12:19:06;29.65;;;16.52;;
76475;SDS011;65308;50.078;14.854;2024-03-06T12:21:35;33.95;;;17.55;;
76475;SDS011;65308;50.078;14.854;2024-03-06T12:24:03;28.33;;;15.23;;
76475;SDS011;65308;50.078;14.854;2024-03-06T12:26:30;27.67;;;16.73;;
76475;SDS011;65308;50.078;14.854;2024-03-06T12:29:03;25.80;;;14.65;;
76475;SDS011;65308;50.078;14.854;2024-03-06T12:31:35;28.10;;;16.60;;
76475;SDS011;65308;50.078;14.854;2024-03-06T12:34:03;32.15;;;18.15;;
76475;SDS011;65308;50.078;14.854;2024-03-06T12:36:31;26.58;;;15.60;;
76475;SDS011;65308;50.078;14.854;2024-03-06T12:38:59;27.35;;;15.40;;
76475;SDS011;65308;50.078;14.854;2024-03-06T12:41:27;26.85;;;17.55;;
76475;SDS011;65308;50.078;14.854;2024-03-06T12:46:21;27.48;;;14.52;;
76475;SDS011;65308;50.078;14.854;2024-03-06T12:48:50;27.38;;;16.33;;
76475;SDS011;65308;50.078;14.854;2024-03-06T12:51:17;26.65;;;16.15;;
76475;SDS011;65308;50.078;14.854;2024-03-06T12:53:43;34.85;;;19.05;;
76475;SDS011;65308;50.078;14.854;2024-03-06T12:56:10;28.63;;;17.00;;
76475;SDS011;65308;50.078;14.854;2024-03-06T12:58:37;28.10;;;16.75;;
76475;SDS011;65308;50.078;14.854;2024-03-06T13:01:03;30.52;;;17.63;;
76475;SDS011;65308;50.078;14.854;2024-03-06T13:03:30;28.23;;;16.02;;
76475;SDS011;65308;50.078;14.854;2024-03-06T13:05:59;27.02;;;15.75;;
76475;SDS011;65308;50.078;14.854;2024-03-06T13:08:25;26.67;;;16.73;;
76475;SDS011;65308;50.078;14.854;2024-03-06T13:10:53;26.92;;;16.08;;
76475;SDS011;65308;50.078;14.854;2024-03-06T13:13:19;27.45;;;16.52;;
76475;SDS011;65308;50.078;14.854;2024-03-06T13:15:48;25.85;;;15.73;;
76475;SDS011;65308;50.078;14.854;2024-03-06T13:18:15;29.20;;;18.67;;
76475;SDS011;65308;50.078;14.854;2024-03-06T13:20:42;27.60;;;15.98;;
76475;SDS011;65308;50.078;14.854;2024-03-06T13:23:10;29.75;;;17.00;;
76475;SDS011;65308;50.078;14.854;2024-03-06T13:25:37;23.67;;;13.95;;
76475;SDS011;65308;50.078;14.854;2024-03-06T13:28:04;27.77;;;15.90;;
76475;SDS011;65308;50.078;14.854;2024-03-06T13:30:31;26.63;;;15.88;;
76475;SDS011;65308;50.078;14.854;2024-03-06T13:32:58;25.20;;;14.55;;
76475;SDS011;65308;50.078;14.854;2024-03-06T13:35:24;26.05;;;15.90;;
76475;SDS011;65308;50.078;14.854;2024-03-06T13:37:51;25.35;;;15.75;;
76475;SDS011;65308;50.078;14.854;2024-03-06T13:40:20;29.67;;;16.42;;
76475;SDS011;65308;50.078;14.854;2024-03-06T13:42:47;25.83;;;15.15;;
76475;SDS011;65308;50.078;14.854;2024-03-06T13:45:14;25.80;;;14.55;;
76475;SDS011;65308;50.078;14.854;2024-03-06T13:47:44;27.20;;;16.50;;
76475;SDS011;65308;50.078;14.854;2024-03-06T13:50:11;24.83;;;15.10;;
76475;SDS011;65308;50.078;14.854;2024-03-06T13:52:39;26.15;;;16.23;;
76475;SDS011;65308;50.078;14.854;2024-03-06T13:55:06;24.98;;;13.50;;
76475;SDS011;65308;50.078;14.854;2024-03-06T13:57:36;29.33;;;16.75;;
76475;SDS011;65308;50.078;14.854;2024-03-06T14:00:04;30.10;;;17.13;;
76475;SDS011;65308;50.078;14.854;2024-03-06T14:02:32;28.00;;;16.90;;
76475;SDS011;65308;50.078;14.854;2024-03-06T14:04:58;19.25;;;10.30;;
76475;SDS011;65308;50.078;14.854;2024-03-06T14:07:25;16.35;;;9.63;;
76475;SDS011;65308;50.078;14.854;2024-03-06T14:09:52;13.15;;;7.57;;
76475;SDS011;65308;50.078;14.854;2024-03-06T14:12:19;12.80;;;7.20;;
76475;SDS011;65308;50.078;14.854;2024-03-06T14:14:47;11.65;;;6.40;;
76475;SDS011;65308;50.078;14.854;2024-03-06T14:17:13;14.05;;;6.90;;
76475;SDS011;65308;50.078;14.854;2024-03-06T14:19:40;13.38;;;7.38;;